Time;durP1;ratioP1;P1;durP2;ratioP2;P2;SDS_P1;SDS_P2;PMS_P1;PMS_P2;Temp;Humidity;BMP_temperature;BMP_pressure;BME280_temperature;BME280_humidity;BME280_pressure;Samples;Min_cycle;Max_cycle;Signal;HPM_P1;HPM_P2
2023/12/15 00:00:21;;;;;;;19.97;12.97;;;0.00;99.90;;;;;;5018969;28;20266;-81
2023/12/15 00:02:48;;;;;;;22.30;13.63;;;-0.10;99.90;;;;;;5006736;28;20235;-81
2023/12/15 00:05:15;;;;;;;21.13;13.30;;;0.00;99.90;;;;;;5003497;28;20266;-81
2023/12/15 00:07:42;;;;;;;21.03;13.47;;;-0.10;99.90;;;;;;5032703;28;20458;-81
2023/12/15 00:10:09;;;;;;;65.07;15.80;;;-0.10;99.90;;;;;;5031223;28;20225;-82
2023/12/15 00:12:36;;;;;;;22.90;12.83;;;-0.10;99.90;;;;;;5036607;28;20220;-80
2023/12/15 00:15:05;;;;;;;24.80;13.23;;;0.00;99.90;;;;;;5018962;28;20237;-80
2023/12/15 00:17:31;;;;;;;23.37;13.80;;;0.00;99.90;;;;;;5016135;28;20859;-80
2023/12/15 00:19:59;;;;;;;34.47;14.07;;;0.00;99.90;;;;;;5017439;28;20686;-80
2023/12/15 00:22:26;;;;;;;25.13;14.10;;;0.10;99.90;;;;;;5014329;28;20781;-80
2023/12/15 00:24:53;;;;;;;27.77;13.93;;;0.10;99.90;;;;;;5005829;28;20575;-82
2023/12/15 00:27:20;;;;;;;23.63;14.03;;;0.20;99.90;;;;;;5016899;28;20229;-81
2023/12/15 00:29:47;;;;;;;125.63;19.13;;;0.20;99.90;;;;;;5026645;28;20225;-80
2023/12/15 00:32:15;;;;;;;32.20;14.03;;;0.30;99.90;;;;;;5012235;28;20222;-81
2023/12/15 00:34:41;;;;;;;36.60;14.30;;;0.40;99.90;;;;;;5024440;28;20230;-81
2023/12/15 00:37:08;;;;;;;21.90;13.97;;;0.40;99.90;;;;;;5020828;28;20224;-80
2023/12/15 00:39:37;;;;;;;23.63;14.70;;;0.50;99.90;;;;;;5011957;28;20222;-80
2023/12/15 00:42:04;;;;;;;36.03;15.97;;;0.50;99.90;;;;;;5012262;28;20231;-82
2023/12/15 00:44:32;;;;;;;23.83;12.97;;;0.60;99.90;;;;;;5017644;28;20294;-81
2023/12/15 00:46:59;;;;;;;28.93;14.23;;;0.60;99.90;;;;;;5017219;28;20220;-80
2023/12/15 00:49:27;;;;;;;27.43;14.37;;;0.70;99.90;;;;;;5023994;28;20231;-80
2023/12/15 00:51:54;;;;;;;20.40;13.10;;;0.70;99.90;;;;;;5030296;28;20241;-81
2023/12/15 00:54:21;;;;;;;31.47;14.67;;;0.80;99.90;;;;;;5027388;28;20888;-80
2023/12/15 00:56:49;;;;;;;23.43;14.50;;;0.80;99.90;;;;;;5036104;28;20228;-80
2023/12/15 00:59:16;;;;;;;22.83;14.10;;;0.90;99.90;;;;;;5035179;28;20229;-81
2023/12/15 01:01:43;;;;;;;22.30;14.00;;;0.90;99.90;;;;;;5029009;28;20218;-81
2023/12/15 01:04:10;;;;;;;31.53;15.47;;;0.90;99.90;;;;;;5034168;28;20224;-80
2023/12/15 01:06:39;;;;;;;21.63;13.27;;;0.90;99.90;;;;;;5036419;28;20912;-81
2023/12/15 01:09:06;;;;;;;22.43;13.10;;;0.90;99.90;;;;;;5020677;28;20227;-81
2023/12/15 01:11:33;;;;;;;21.37;14.17;;;1.00;99.90;;;;;;5018766;28;20729;-81
2023/12/15 01:14:00;;;;;;;40.17;14.97;;;1.00;99.90;;;;;;5019554;28;20252;-81
2023/12/15 01:16:27;;;;;;;30.07;13.67;;;1.00;99.90;;;;;;5017469;28;20707;-81
2023/12/15 01:18:55;;;;;;;24.00;13.47;;;1.00;99.90;;;;;;5022782;28;20257;-81
2023/12/15 01:21:21;;;;;;;25.73;13.23;;;1.10;99.90;;;;;;5008605;28;20240;-82
2023/12/15 01:23:50;;;;;;;33.70;14.43;;;1.10;99.90;;;;;;5011060;28;20256;-80
2023/12/15 01:26:18;;;;;;;29.50;13.87;;;1.10;99.90;;;;;;5016509;28;20500;-81
2023/12/15 01:28:45;;;;;;;30.57;14.13;;;1.10;99.90;;;;;;5006571;28;20710;-80
2023/12/15 01:31:13;;;;;;;101.07;18.60;;;1.10;99.90;;;;;;5010904;28;20239;-82
2023/12/15 01:33:41;;;;;;;197.17;24.43;;;1.20;99.90;;;;;;5006275;28;20308;-81
2023/12/15 01:36:08;;;;;;;27.90;15.30;;;1.20;99.90;;;;;;5011256;28;20232;-82
2023/12/15 01:38:35;;;;;;;22.57;13.93;;;1.20;99.90;;;;;;5011164;28;20235;-81
2023/12/15 01:41:04;;;;;;;40.17;15.20;;;1.20;99.90;;;;;;5012805;28;20222;-82
2023/12/15 01:43:31;;;;;;;22.03;13.80;;;1.20;99.90;;;;;;5013838;28;20767;-80
2023/12/15 01:45:58;;;;;;;24.17;14.47;;;1.30;99.90;;;;;;5006366;28;20238;-80
2023/12/15 01:48:25;;;;;;;35.93;14.90;;;1.30;99.90;;;;;;5034138;28;20305;-81
2023/12/15 01:50:52;;;;;;;28.70;14.60;;;1.30;99.90;;;;;;5008089;28;20221;-80
2023/12/15 01:53:20;;;;;;;23.10;14.70;;;1.30;99.90;;;;;;5007810;28;20239;-82
2023/12/15 01:55:47;;;;;;;24.17;14.13;;;1.40;99.90;;;;;;5015140;28;20242;-81
2023/12/15 01:58:15;;;;;;;27.70;14.67;;;1.40;99.90;;;;;;5013999;28;20226;-80
2023/12/15 02:00:42;;;;;;;26.00;14.30;;;1.40;99.90;;;;;;5008005;28;20235;-82
2023/12/15 02:03:09;;;;;;;23.90;14.37;;;1.40;99.90;;;;;;5025130;28;20279;-81
2023/12/15 02:05:36;;;;;;;23.90;14.40;;;1.40;99.90;;;;;;5029092;28;20276;-80
2023/12/15 02:08:02;;;;;;;24.60;13.83;;;1.40;99.90;;;;;;5032158;28;20765;-82
2023/12/15 02:10:29;;;;;;;30.83;15.33;;;1.40;99.90;;;;;;4999115;28;20251;-82
2023/12/15 02:12:56;;;;;;;24.80;14.00;;;1.40;99.90;;;;;;5021549;28;20256;-82
2023/12/15 02:15:24;;;;;;;29.93;14.77;;;1.50;99.90;;;;;;5015018;28;20246;-82
2023/12/15 02:17:51;;;;;;;26.27;14.40;;;1.50;99.90;;;;;;5025285;28;20315;-80
2023/12/15 02:20:18;;;;;;;28.73;14.67;;;1.50;99.90;;;;;;5017637;28;21093;-81
2023/12/15 02:22:46;;;;;;;30.60;15.60;;;1.50;99.90;;;;;;5025103;28;20669;-81
2023/12/15 02:25:13;;;;;;;23.30;14.27;;;1.50;99.90;;;;;;5028830;28;20314;-81
2023/12/15 02:27:40;;;;;;;33.10;15.17;;;1.50;99.90;;;;;;5011573;28;20289;-82
2023/12/15 02:30:08;;;;;;;26.97;15.33;;;1.60;99.90;;;;;;5031315;28;20254;-80
2023/12/15 02:32:35;;;;;;;24.17;14.53;;;1.60;99.90;;;;;;5035635;28;20303;-81
2023/12/15 02:35:02;;;;;;;32.83;15.20;;;1.60;99.90;;;;;;5012663;28;20224;-82
2023/12/15 02:37:28;;;;;;;25.97;14.37;;;1.60;99.90;;;;;;5010091;28;20240;-83
2023/12/15 02:39:56;;;;;;;23.70;14.10;;;1.60;99.90;;;;;;5023602;28;20673;-81
2023/12/15 02:42:23;;;;;;;27.83;14.83;;;1.60;99.90;;;;;;5023323;28;20263;-83
2023/12/15 02:44:50;;;;;;;54.67;16.73;;;1.60;99.90;;;;;;5030150;28;20315;-82
2023/12/15 02:47:17;;;;;;;34.33;15.80;;;1.70;99.90;;;;;;5028896;28;20225;-83
2023/12/15 02:49:44;;;;;;;24.07;14.33;;;1.70;99.90;;;;;;5023813;28;20227;-82
2023/12/15 02:52:11;;;;;;;152.33;24.70;;;1.70;99.90;;;;;;5006589;28;20729;-82
2023/12/15 02:54:38;;;;;;;30.87;15.30;;;1.80;99.90;;;;;;5025782;28;20234;-81
2023/12/15 02:57:06;;;;;;;25.80;14.70;;;1.70;99.90;;;;;;5032335;28;21633;-81
2023/12/15 02:59:33;;;;;;;39.40;16.40;;;1.80;99.90;;;;;;5030169;28;20707;-82
2023/12/15 03:02:00;;;;;;;31.30;15.67;;;1.80;99.90;;;;;;5029024;28;20805;-81
2023/12/15 03:04:27;;;;;;;30.37;15.50;;;1.80;99.90;;;;;;5021197;28;20314;-81
2023/12/15 03:06:55;;;;;;;24.17;15.17;;;1.80;99.90;;;;;;5018599;28;20247;-81
2023/12/15 03:09:22;;;;;;;22.13;14.67;;;1.80;99.90;;;;;;5016220;28;20295;-82
2023/12/15 03:11:49;;;;;;;24.03;14.77;;;1.80;99.90;;;;;;5019460;28;20259;-81
2023/12/15 03:14:17;;;;;;;22.93;15.00;;;1.80;99.90;;;;;;5027871;28;20304;-81
2023/12/15 03:16:44;;;;;;;25.37;15.27;;;1.90;99.90;;;;;;5026753;28;20252;-80
2023/12/15 03:19:10;;;;;;;27.87;14.73;;;1.90;99.90;;;;;;5014409;28;20307;-80
2023/12/15 03:21:37;;;;;;;28.40;15.07;;;1.90;99.90;;;;;;5029579;28;20813;-81
2023/12/15 03:24:05;;;;;;;32.73;16.10;;;1.90;99.90;;;;;;5013403;28;20231;-81
2023/12/15 03:26:32;;;;;;;27.90;15.50;;;1.90;99.90;;;;;;5008638;28;20256;-80
2023/12/15 03:28:59;;;;;;;24.17;15.00;;;1.90;99.90;;;;;;5028687;28;20953;-81
2023/12/15 03:31:27;;;;;;;24.00;15.27;;;2.00;99.90;;;;;;5031664;28;20699;-81
2023/12/15 03:33:54;;;;;;;22.53;14.63;;;2.00;99.90;;;;;;5030700;28;20831;-81
2023/12/15 03:36:21;;;;;;;23.30;14.50;;;2.00;99.90;;;;;;5021646;28;20855;-80
2023/12/15 03:38:48;;;;;;;23.67;14.10;;;2.00;99.90;;;;;;5037022;28;20220;-81
2023/12/15 03:41:15;;;;;;;37.07;15.67;;;2.10;99.90;;;;;;5022750;28;20281;-80
2023/12/15 03:43:42;;;;;;;24.93;14.97;;;2.10;99.90;;;;;;5032526;28;20711;-81
2023/12/15 03:46:09;;;;;;;23.60;14.97;;;2.10;99.90;;;;;;5016584;28;20238;-81
2023/12/15 03:48:37;;;;;;;24.23;15.17;;;2.10;99.90;;;;;;5037315;28;20312;-81
2023/12/15 03:51:04;;;;;;;26.27;15.03;;;2.20;99.90;;;;;;5011829;28;20312;-81
2023/12/15 03:53:31;;;;;;;24.60;14.10;;;2.20;99.90;;;;;;5039006;28;20233;-81
2023/12/15 03:55:58;;;;;;;21.93;13.50;;;2.20;99.90;;;;;;5019347;28;20242;-81
2023/12/15 03:58:25;;;;;;;23.23;14.43;;;2.20;99.90;;;;;;5031949;28;20320;-80
2023/12/15 04:00:52;;;;;;;22.40;13.57;;;2.20;99.90;;;;;;5030548;28;20234;-81
2023/12/15 04:03:19;;;;;;;24.30;14.67;;;2.20;99.90;;;;;;5036077;28;20229;-81
2023/12/15 04:05:46;;;;;;;22.53;13.93;;;2.20;99.90;;;;;;5030757;28;20589;-81
2023/12/15 04:08:13;;;;;;;27.20;16.20;;;2.20;99.90;;;;;;5026725;28;20232;-81
2023/12/15 04:10:40;;;;;;;26.63;15.77;;;2.30;99.90;;;;;;5033173;28;20273;-82
2023/12/15 04:13:07;;;;;;;23.67;14.37;;;2.30;99.90;;;;;;5043166;28;20290;-81
2023/12/15 04:15:33;;;;;;;24.23;14.27;;;2.30;99.90;;;;;;5022513;28;20229;-80
2023/12/15 04:18:02;;;;;;;22.63;13.97;;;2.30;99.90;;;;;;5037974;28;20227;-81
2023/12/15 04:20:29;;;;;;;24.63;14.37;;;2.30;99.90;;;;;;5026954;28;20294;-81
2023/12/15 04:22:58;;;;;;;23.37;14.17;;;2.30;99.90;;;;;;5027453;28;20229;-82
2023/12/15 04:25:24;;;;;;;22.80;14.53;;;2.40;99.90;;;;;;5020461;28;20259;-81
2023/12/15 04:27:51;;;;;;;23.47;14.97;;;2.40;99.90;;;;;;5028583;28;20244;-82
2023/12/15 04:30:18;;;;;;;25.60;15.90;;;2.40;99.90;;;;;;5031601;28;20275;-80
2023/12/15 04:32:44;;;;;;;53.47;17.07;;;2.50;99.90;;;;;;5028640;28;20319;-81
2023/12/15 04:35:11;;;;;;;26.47;14.90;;;2.40;99.90;;;;;;5035270;28;20223;-82
2023/12/15 04:37:38;;;;;;;22.77;13.90;;;2.50;99.90;;;;;;5016077;28;20268;-81
2023/12/15 04:40:07;;;;;;;27.43;15.37;;;2.50;99.90;;;;;;5028435;28;20235;-81
2023/12/15 04:42:34;;;;;;;25.40;15.70;;;2.50;99.90;;;;;;5031216;28;20221;-82
2023/12/15 04:45:01;;;;;;;26.03;15.07;;;2.60;99.90;;;;;;5013981;28;20231;-82
2023/12/15 04:47:27;;;;;;;27.27;15.83;;;2.60;99.90;;;;;;5019446;28;20249;-80
2023/12/15 04:49:54;;;;;;;30.83;16.20;;;2.60;99.90;;;;;;5029163;28;20319;-81
2023/12/15 04:52:21;;;;;;;27.23;16.07;;;2.70;99.90;;;;;;5017024;28;20310;-82
2023/12/15 04:54:48;;;;;;;28.93;15.93;;;2.70;99.90;;;;;;5017575;28;20841;-81
2023/12/15 04:57:16;;;;;;;29.70;16.83;;;2.80;99.90;;;;;;5035020;28;20218;-82
2023/12/15 04:59:43;;;;;;;28.80;16.10;;;2.80;99.90;;;;;;5033987;28;20233;-81
2023/12/15 05:02:10;;;;;;;28.53;16.43;;;2.80;99.90;;;;;;5014415;28;20299;-81
2023/12/15 05:04:39;;;;;;;62.93;18.90;;;2.90;99.90;;;;;;5018768;28;20216;-80
2023/12/15 05:07:06;;;;;;;28.67;16.00;;;2.90;99.90;;;;;;5005868;28;20223;-81
2023/12/15 05:09:33;;;;;;;34.90;16.70;;;2.90;99.90;;;;;;5024521;28;20351;-80
2023/12/15 05:12:00;;;;;;;27.43;16.33;;;2.90;99.90;;;;;;5009027;28;20472;-80
2023/12/15 05:14:28;;;;;;;27.83;16.63;;;3.00;99.90;;;;;;5022368;28;20233;-79
2023/12/15 05:16:55;;;;;;;27.77;16.43;;;3.00;99.90;;;;;;4998804;28;20226;-81
2023/12/15 05:19:22;;;;;;;32.37;16.77;;;3.00;99.90;;;;;;5022095;28;20309;-80
2023/12/15 05:21:49;;;;;;;29.00;17.33;;;3.00;99.90;;;;;;5016536;28;20221;-80
2023/12/15 05:24:16;;;;;;;63.97;19.17;;;3.10;99.90;;;;;;5028197;28;20282;-80
2023/12/15 05:26:43;;;;;;;38.30;18.20;;;3.10;99.90;;;;;;5012937;28;20227;-84
2023/12/15 05:29:10;;;;;;;44.90;18.90;;;3.20;99.90;;;;;;5015163;28;20218;-83
2023/12/15 05:31:39;;;;;;;63.90;19.43;;;3.10;99.90;;;;;;5005518;28;20225;-82
2023/12/15 05:34:06;;;;;;;53.53;18.87;;;3.20;99.90;;;;;;5018703;28;20221;-82
2023/12/15 05:36:33;;;;;;;261.13;30.43;;;3.30;99.90;;;;;;5003016;28;20239;-84
2023/12/15 05:38:59;;;;;;;44.53;18.17;;;3.30;99.90;;;;;;5020687;28;20345;-84
2023/12/15 05:41:27;;;;;;;55.20;18.63;;;3.20;99.90;;;;;;5008999;28;20710;-83
2023/12/15 05:43:54;;;;;;;52.10;19.73;;;3.30;99.90;;;;;;5006312;28;20897;-85
2023/12/15 05:46:21;;;;;;;91.90;20.80;;;3.30;99.90;;;;;;5029295;28;20929;-85
2023/12/15 05:48:49;;;;;;;32.30;17.60;;;3.30;99.90;;;;;;5030126;28;20230;-85
2023/12/15 05:51:16;;;;;;;115.80;24.13;;;3.40;99.90;;;;;;4999625;28;20991;-84
2023/12/15 05:53:43;;;;;;;100.43;21.47;;;3.40;99.90;;;;;;5009491;28;20249;-85
2023/12/15 05:56:10;;;;;;;32.30;18.03;;;3.40;99.90;;;;;;5017018;28;20230;-85
2023/12/15 05:58:37;;;;;;;58.90;18.30;;;3.40;99.90;;;;;;5035869;28;20238;-84
2023/12/15 06:01:04;;;;;;;38.17;18.37;;;3.50;99.90;;;;;;5031698;28;20799;-86
2023/12/15 06:03:31;;;;;;;47.47;18.53;;;3.50;99.90;;;;;;5026854;28;20224;-85
2023/12/15 06:05:59;;;;;;;35.90;15.93;;;3.50;99.90;;;;;;5026178;28;20252;-86
2023/12/15 06:08:26;;;;;;;38.80;16.70;;;3.50;99.90;;;;;;5016777;28;20643;-86
2023/12/15 06:10:53;;;;;;;187.07;25.67;;;3.50;99.90;;;;;;5023433;28;20285;-85
2023/12/15 06:13:20;;;;;;;65.97;19.27;;;3.60;99.90;;;;;;5040891;28;20803;-86
2023/12/15 06:15:46;;;;;;;41.73;16.90;;;3.60;99.90;;;;;;5031127;28;20922;-85
2023/12/15 06:18:13;;;;;;;54.60;17.87;;;3.60;99.90;;;;;;5023164;28;20231;-86
2023/12/15 06:20:40;;;;;;;90.47;19.60;;;3.60;99.90;;;;;;5013447;28;20285;-86
2023/12/15 06:23:08;;;;;;;65.10;17.53;;;3.60;99.90;;;;;;5026419;28;20276;-85
2023/12/15 06:25:36;;;;;;;58.73;17.83;;;3.70;99.90;;;;;;5027257;28;20242;-85
2023/12/15 06:28:03;;;;;;;36.10;15.57;;;3.70;99.90;;;;;;5016938;28;20224;-86
2023/12/15 06:30:30;;;;;;;35.37;17.70;;;3.70;99.90;;;;;;5016494;28;20300;-85
2023/12/15 06:32:56;;;;;;;47.20;17.80;;;3.70;99.90;;;;;;5023565;28;20226;-85
2023/12/15 06:35:23;;;;;;;56.20;19.33;;;3.70;99.90;;;;;;5004294;28;20713;-85
2023/12/15 06:37:51;;;;;;;87.27;21.40;;;3.70;99.90;;;;;;5004869;28;20228;-85
2023/12/15 06:40:19;;;;;;;85.00;21.10;;;3.80;99.90;;;;;;5020967;28;20640;-85
2023/12/15 06:42:46;;;;;;;64.87;20.10;;;3.80;99.90;;;;;;5005122;28;20871;-85
2023/12/15 06:45:14;;;;;;;114.87;22.03;;;3.80;99.90;;;;;;4999881;28;20612;-85
2023/12/15 06:47:41;;;;;;;62.87;19.10;;;3.80;99.90;;;;;;5005173;28;20428;-85
2023/12/15 06:50:09;;;;;;;45.27;19.87;;;3.80;99.90;;;;;;5005259;28;20580;-85
2023/12/15 06:52:36;;;;;;;67.53;20.70;;;3.90;99.90;;;;;;5005808;28;20328;-85
2023/12/15 06:55:04;;;;;;;44.70;20.57;;;3.90;99.90;;;;;;5026429;28;20258;-85
2023/12/15 06:57:32;;;;;;;49.73;19.37;;;3.90;99.90;;;;;;5005942;28;20232;-85
2023/12/15 06:59:59;;;;;;;57.23;19.63;;;4.00;99.90;;;;;;5002434;28;20232;-85
2023/12/15 07:02:26;;;;;;;300.27;35.67;;;3.90;99.90;;;;;;5005421;28;20236;-86
2023/12/15 07:04:53;;;;;;;66.20;21.33;;;4.00;99.90;;;;;;5006394;28;20304;-85
2023/12/15 07:07:20;;;;;;;71.97;22.43;;;4.00;99.90;;;;;;5019922;28;20285;-85
2023/12/15 07:09:46;;;;;;;97.70;23.93;;;4.00;99.90;;;;;;5010358;28;21016;-86
2023/12/15 07:12:13;;;;;;;78.30;22.90;;;4.00;99.90;;;;;;5021606;28;20314;-84
2023/12/15 07:14:42;;;;;;;96.47;24.20;;;4.00;99.90;;;;;;5012648;28;20242;-84
2023/12/15 07:17:08;;;;;;;81.50;22.73;;;4.00;99.90;;;;;;5013230;28;20254;-86
2023/12/15 07:19:35;;;;;;;48.20;20.37;;;4.00;99.90;;;;;;5009717;28;20263;-85
2023/12/15 07:22:02;;;;;;;161.33;28.40;;;4.00;99.90;;;;;;5002062;28;20669;-85
2023/12/15 07:24:29;;;;;;;55.43;21.07;;;4.00;99.90;;;;;;5002078;28;20595;-85
2023/12/15 07:26:55;;;;;;;41.87;19.63;;;4.10;99.90;;;;;;5010168;28;20251;-85
2023/12/15 07:29:22;;;;;;;114.63;25.77;;;4.10;99.90;;;;;;5008042;28;20236;-85
2023/12/15 07:31:50;;;;;;;45.83;21.37;;;4.10;99.90;;;;;;5002299;28;20266;-86
2023/12/15 07:34:18;;;;;;;61.27;21.90;;;4.10;99.90;;;;;;5028699;28;20219;-85
2023/12/15 07:36:45;;;;;;;172.80;29.37;;;4.10;99.90;;;;;;5009573;28;20306;-85
2023/12/15 07:39:12;;;;;;;107.13;24.87;;;4.10;99.90;;;;;;5009546;28;20643;-84
2023/12/15 07:41:39;;;;;;;65.03;23.57;;;4.20;99.90;;;;;;4997759;28;20737;-85
2023/12/15 07:44:06;;;;;;;60.93;22.20;;;4.20;99.90;;;;;;5029447;28;20223;-85
2023/12/15 07:46:33;;;;;;;66.27;24.60;;;4.20;99.90;;;;;;5015031;28;20237;-86
2023/12/15 07:49:01;;;;;;;74.30;23.97;;;4.20;99.90;;;;;;5015649;28;20597;-85
2023/12/15 07:51:31;;;;;;;70.27;25.20;;;4.20;99.90;;;;;;5015606;28;20231;-85
2023/12/15 07:53:58;;;;;;;139.00;27.13;;;4.20;99.90;;;;;;5016222;28;20231;-85
2023/12/15 07:56:26;;;;;;;131.20;28.97;;;4.30;99.90;;;;;;5003382;28;20277;-85
2023/12/15 07:58:54;;;;;;;61.37;23.23;;;4.30;99.90;;;;;;5026458;28;20256;-85
2023/12/15 08:01:25;;;;;;;56.80;23.57;;;4.30;99.90;;;;;;5007890;28;20246;-84
2023/12/15 08:03:51;;;;;;;65.40;24.27;;;4.30;99.90;;;;;;4996331;28;20319;-84
2023/12/15 08:06:20;;;;;;;70.77;23.83;;;4.30;99.90;;;;;;5013139;28;20335;-85
2023/12/15 08:08:48;;;;;;;117.97;27.37;;;4.40;99.90;;;;;;5010156;28;20744;-85
2023/12/15 08:11:15;;;;;;;80.63;25.47;;;4.40;99.90;;;;;;5004376;28;20235;-85
2023/12/15 08:13:42;;;;;;;62.23;24.97;;;4.40;99.90;;;;;;5006993;28;20231;-85
2023/12/15 08:16:10;;;;;;;136.87;29.97;;;4.50;99.90;;;;;;5009913;28;20253;-85
2023/12/15 08:18:37;;;;;;;232.83;35.90;;;4.50;99.90;;;;;;5003826;28;20220;-85
2023/12/15 08:21:05;;;;;;;71.67;26.50;;;4.50;99.90;;;;;;5007465;28;20232;-85
2023/12/15 08:23:33;;;;;;;60.03;26.33;;;4.50;99.90;;;;;;5004284;28;20339;-86
2023/12/15 08:25:59;;;;;;;96.70;27.07;;;4.50;99.90;;;;;;4998806;28;20239;-85
2023/12/15 08:28:26;;;;;;;79.77;25.80;;;4.60;99.90;;;;;;5020119;28;20231;-84
2023/12/15 08:30:53;;;;;;;135.20;29.97;;;4.60;99.90;;;;;;5016877;28;20227;-86
2023/12/15 08:33:20;;;;;;;106.70;28.10;;;4.60;99.90;;;;;;5024742;28;20255;-85
2023/12/15 08:35:46;;;;;;;137.67;29.77;;;4.60;99.90;;;;;;5014173;28;20714;-85
2023/12/15 08:38:13;;;;;;;103.33;28.53;;;4.70;99.90;;;;;;5017532;28;20867;-85
2023/12/15 08:40:41;;;;;;;160.40;31.13;;;4.70;99.90;;;;;;5025255;28;20232;-85
2023/12/15 08:43:08;;;;;;;86.83;28.67;;;4.80;99.90;;;;;;5012006;28;20230;-85
2023/12/15 08:45:35;;;;;;;131.27;30.33;;;4.80;99.90;;;;;;5033026;28;20316;-85
2023/12/15 08:48:02;;;;;;;98.97;28.50;;;4.80;99.90;;;;;;5013496;28;20284;-85
2023/12/15 08:50:28;;;;;;;72.83;26.60;;;4.90;99.90;;;;;;5011894;28;20232;-85
2023/12/15 08:52:55;;;;;;;64.80;26.50;;;4.90;99.90;;;;;;5028094;28;20228;-86
2023/12/15 08:55:22;;;;;;;111.27;28.70;;;4.90;99.90;;;;;;5020347;28;20261;-86
2023/12/15 08:57:51;;;;;;;69.50;26.83;;;4.90;99.90;;;;;;5029709;28;20773;-85
2023/12/15 09:00:18;;;;;;;52.57;25.23;;;4.90;99.90;;;;;;5020164;28;20232;-85
2023/12/15 09:02:45;;;;;;;64.50;26.03;;;5.00;99.90;;;;;;4998847;28;20235;-86
2023/12/15 09:05:13;;;;;;;59.73;25.03;;;5.00;99.90;;;;;;4991344;28;20232;-85
2023/12/15 09:07:40;;;;;;;52.60;23.73;;;5.00;99.90;;;;;;5011204;28;20225;-84
2023/12/15 09:10:08;;;;;;;54.77;23.90;;;5.00;99.90;;;;;;5004799;28;20283;-84
2023/12/15 09:12:35;;;;;;;50.67;22.60;;;5.10;99.90;;;;;;5008485;28;20232;-85
2023/12/15 09:15:03;;;;;;;47.67;21.47;;;5.10;99.90;;;;;;5024501;28;20231;-85
2023/12/15 09:17:30;;;;;;;45.97;21.70;;;5.10;99.90;;;;;;5007260;28;20222;-84
2023/12/15 09:19:57;;;;;;;42.07;22.33;;;5.20;99.90;;;;;;5025312;28;20354;-84
2023/12/15 09:22:23;;;;;;;43.40;22.23;;;5.20;99.90;;;;;;5012744;28;20302;-84
2023/12/15 09:24:51;;;;;;;48.77;22.37;;;5.20;99.90;;;;;;5024895;28;20313;-85
2023/12/15 09:27:18;;;;;;;51.33;22.53;;;5.20;99.90;;;;;;5025462;28;20818;-84
2023/12/15 09:29:45;;;;;;;47.03;22.20;;;5.30;99.90;;;;;;5011362;28;20716;-83
2023/12/15 09:32:13;;;;;;;45.50;22.63;;;5.30;99.90;;;;;;5022289;28;20696;-85
2023/12/15 09:34:40;;;;;;;46.97;22.20;;;5.30;99.90;;;;;;5009899;28;20257;-84
2023/12/15 09:37:07;;;;;;;42.00;21.60;;;5.40;99.90;;;;;;5013189;28;20628;-84
2023/12/15 09:39:34;;;;;;;45.27;21.20;;;5.40;99.90;;;;;;5015959;28;20248;-84
2023/12/15 09:42:01;;;;;;;42.87;20.30;;;5.40;99.90;;;;;;4997815;28;20271;-85
2023/12/15 09:44:28;;;;;;;38.73;19.60;;;5.50;99.90;;;;;;5016947;28;20262;-84
2023/12/15 09:46:57;;;;;;;40.27;20.07;;;5.50;99.90;;;;;;5014188;28;20229;-84
2023/12/15 09:49:27;;;;;;;40.67;19.43;;;5.50;99.90;;;;;;5033375;28;20234;-85
2023/12/15 09:51:54;;;;;;;40.73;19.40;;;5.60;99.90;;;;;;5033636;28;20236;-85
2023/12/15 09:54:21;;;;;;;37.83;19.10;;;5.60;99.90;;;;;;5013465;28;20776;-85
2023/12/15 09:56:50;;;;;;;35.43;19.17;;;5.60;99.90;;;;;;5023521;28;21015;-85
2023/12/15 09:59:16;;;;;;;39.03;20.17;;;5.60;99.90;;;;;;5016631;28;20221;-85
2023/12/15 10:01:43;;;;;;;40.67;19.60;;;5.70;99.90;;;;;;5006422;28;20238;-85
2023/12/15 10:04:10;;;;;;;42.53;20.77;;;5.70;99.90;;;;;;5009636;28;20226;-85
2023/12/15 10:06:38;;;;;;;40.60;19.57;;;5.70;99.90;;;;;;5026971;28;20315;-85
2023/12/15 10:09:12;;;;;;;41.07;21.10;;;5.70;99.90;;;;;;5024723;28;20229;-84
2023/12/15 10:11:40;;;;;;;41.67;21.07;;;5.80;99.90;;;;;;5019087;28;20232;-85
2023/12/15 10:14:08;;;;;;;56.63;21.87;;;5.80;99.90;;;;;;5010381;28;20268;-85
2023/12/15 10:16:35;;;;;;;43.47;21.60;;;5.80;99.90;;;;;;5030812;28;20237;-85
2023/12/15 10:19:03;;;;;;;48.73;22.37;;;5.90;99.90;;;;;;5014310;28;20300;-84
2023/12/15 10:21:31;;;;;;;46.17;22.43;;;5.90;99.90;;;;;;5023313;28;20229;-83
2023/12/15 10:23:59;;;;;;;45.90;22.27;;;6.00;99.90;;;;;;5026217;28;20284;-85
2023/12/15 10:26:28;;;;;;;51.40;23.13;;;6.00;99.90;;;;;;5012954;28;20702;-84
2023/12/15 10:28:55;;;;;;;45.93;21.67;;;6.10;99.90;;;;;;5010032;28;20225;-85
2023/12/15 10:31:27;;;;;;;43.73;21.40;;;6.10;99.90;;;;;;5025449;28;20217;-86
2023/12/15 10:33:54;;;;;;;50.07;23.10;;;6.10;99.90;;;;;;5027002;28;20244;-84
2023/12/15 10:36:21;;;;;;;46.83;22.03;;;6.20;99.90;;;;;;5008817;28;20756;-84
2023/12/15 10:38:48;;;;;;;52.90;23.80;;;6.20;99.90;;;;;;5008225;28;20217;-85
2023/12/15 10:41:17;;;;;;;51.07;22.70;;;6.20;99.90;;;;;;5009421;28;20215;-85
2023/12/15 10:43:45;;;;;;;54.47;23.97;;;6.30;99.90;;;;;;5025916;28;20260;-85
2023/12/15 10:46:12;;;;;;;50.00;21.73;;;6.30;99.90;;;;;;5023925;28;20792;-84
2023/12/15 10:48:40;;;;;;;49.53;21.60;;;6.30;99.90;;;;;;5027936;28;20254;-85
2023/12/15 10:51:08;;;;;;;47.37;21.80;;;6.20;99.90;;;;;;5016439;28;20221;-85
2023/12/15 10:53:39;;;;;;;48.77;22.93;;;6.30;99.90;;;;;;5018994;28;20214;-84
2023/12/15 10:56:07;;;;;;;47.03;21.47;;;6.30;99.90;;;;;;4988782;28;20245;-85
2023/12/15 10:58:35;;;;;;;46.83;21.80;;;6.30;99.90;;;;;;4996664;28;20308;-85
2023/12/15 11:01:03;;;;;;;53.77;22.10;;;6.40;99.90;;;;;;4995704;28;20307;-86
2023/12/15 11:03:30;;;;;;;44.17;21.57;;;6.40;99.90;;;;;;5012744;28;20258;-86
2023/12/15 11:05:56;;;;;;;52.30;21.27;;;6.40;99.90;;;;;;5005541;28;20225;-86
2023/12/15 11:08:23;;;;;;;46.17;21.60;;;6.40;99.90;;;;;;5008778;28;20238;-86
2023/12/15 11:10:51;;;;;;;45.53;20.97;;;6.40;99.90;;;;;;5024143;28;20218;-87
2023/12/15 11:13:50;;;;;;;54.47;21.80;;;6.50;99.90;;;;;;5000252;28;20304;-86
2023/12/15 11:16:18;;;;;;;44.87;21.83;;;6.50;99.90;;;;;;5004811;28;20598;-86
2023/12/15 11:18:45;;;;;;;47.67;20.90;;;6.60;99.90;;;;;;5009258;28;20238;-87
2023/12/15 11:21:11;;;;;;;49.93;20.40;;;6.60;99.90;;;;;;5025109;28;20303;-87
2023/12/15 11:23:50;;;;;;;44.23;21.47;;;6.60;99.90;;;;;;5019716;28;20238;-86
2023/12/15 11:26:22;;;;;;;45.97;20.03;;;6.70;99.90;;;;;;5000037;28;20227;-85
2023/12/15 11:28:50;;;;;;;41.23;19.20;;;6.70;99.90;;;;;;5012079;28;20256;-86
2023/12/15 11:31:26;;;;;;;51.67;21.13;;;6.80;99.90;;;;;;5022550;28;20314;-86
2023/12/15 11:33:53;;;;;;;39.97;19.13;;;6.80;99.90;;;;;;5010631;28;20253;-86
2023/12/15 11:36:20;;;;;;;43.60;19.40;;;6.80;99.90;;;;;;5015087;28;20311;-86
2023/12/15 11:38:48;;;;;;;51.50;19.53;;;6.80;99.90;;;;;;5022629;28;20238;-87
2023/12/15 11:41:19;;;;;;;37.33;18.00;;;6.90;99.90;;;;;;5024493;28;20219;-87
2023/12/15 11:43:46;;;;;;;40.10;19.33;;;6.90;99.90;;;;;;5027200;28;20222;-86
2023/12/15 11:46:14;;;;;;;37.47;17.43;;;6.90;99.90;;;;;;5020325;28;20636;-85
2023/12/15 11:48:42;;;;;;;39.63;17.70;;;7.00;99.90;;;;;;5034726;28;20220;-85
2023/12/15 11:51:09;;;;;;;37.33;17.50;;;7.00;99.90;;;;;;5028343;28;20617;-85
2023/12/15 11:53:39;;;;;;;42.50;17.53;;;7.00;99.90;;;;;;5010771;28;20223;-85
2023/12/15 11:56:07;;;;;;;38.40;16.63;;;7.00;99.90;;;;;;5004191;28;20306;-85
2023/12/15 11:58:35;;;;;;;35.37;15.70;;;7.10;99.90;;;;;;5011662;28;20233;-85
2023/12/15 12:01:03;;;;;;;35.00;16.57;;;7.10;99.90;;;;;;5000215;28;20226;-85
2023/12/15 12:03:31;;;;;;;36.33;16.17;;;7.10;99.90;;;;;;4999266;28;20232;-84
2023/12/15 12:05:59;;;;;;;30.23;15.53;;;7.10;99.90;;;;;;5009327;28;20243;-85
2023/12/15 12:08:25;;;;;;;36.03;15.00;;;7.20;99.90;;;;;;5016599;28;20330;-85
2023/12/15 12:10:55;;;;;;;35.13;15.87;;;7.20;99.90;;;;;;5003498;28;20250;-85
2023/12/15 12:13:30;;;;;;;32.77;14.83;;;7.20;99.90;;;;;;5028442;28;20226;-85
2023/12/15 12:15:57;;;;;;;34.00;15.40;;;7.30;99.90;;;;;;5024360;28;20251;-85
2023/12/15 12:18:26;;;;;;;33.40;14.10;;;7.30;99.90;;;;;;5013975;28;20495;-85
2023/12/15 12:20:55;;;;;;;35.87;14.97;;;7.30;99.90;;;;;;5033331;28;20227;-84
2023/12/15 12:23:24;;;;;;;35.00;15.33;;;7.40;99.90;;;;;;5012327;28;20734;-85
2023/12/15 12:25:52;;;;;;;31.93;14.10;;;7.40;99.90;;;;;;5026059;28;20289;-85
2023/12/15 12:28:20;;;;;;;33.43;15.40;;;7.40;99.90;;;;;;5032441;28;20266;-84
2023/12/15 12:30:48;;;;;;;32.40;15.13;;;7.40;99.90;;;;;;5026135;28;20224;-85
2023/12/15 12:33:15;;;;;;;33.03;14.23;;;7.40;99.90;;;;;;5015198;28;20905;-85
2023/12/15 12:35:41;;;;;;;32.60;14.57;;;7.50;99.90;;;;;;5007016;28;20263;-85